Cloridorme, Canada
Current Conditions -  °F | °C
As of 5:00 PM on Wednesday 28 Jan 2015 (Local Time) from CYGP Reporting Station
Light Snow Light Snow  
Wind Chill:   Ceiling: 3500
Heat Index: 14°   Visibility: 10mi
Dew Point:   Wind: 10mph
Humidity: 73%   Direction: 310°NW
Pressure: 29.88"   Gusts: 24mph
Location:  49.17°N, 64.92°W
Report Text: CYGP 282200Z 31009G21KT 280V350 10SM -SN DRSN OVC035 M10/M14 A2988 RMK SC8 SLP122
Loading
Personal Weather Stations






























Interactive Weather Map New forecast layout! Learn more

10-Day Weather Forecast

Advertisements
Track Severe Weather on mobile